sensor_id;sensor_type;location;lat;lon;timestamp;temperature;humidity
78647;DHT22;67961;43.460;3.762;2023-11-21T00:02:21;14.30;57.00
78647;DHT22;67961;43.460;3.762;2023-11-21T00:04:48;14.30;57.10
78647;DHT22;67961;43.460;3.762;2023-11-21T00:07:14;14.30;57.10
78647;DHT22;67961;43.460;3.762;2023-11-21T00:09:40;14.30;56.80
78647;DHT22;67961;43.460;3.762;2023-11-21T00:12:07;14.30;57.30
78647;DHT22;67961;43.460;3.762;2023-11-21T00:14:37;14.20;57.20
78647;DHT22;67961;43.460;3.762;2023-11-21T00:17:04;14.20;57.50
78647;DHT22;67961;43.460;3.762;2023-11-21T00:19:31;14.20;57.30
78647;DHT22;67961;43.460;3.762;2023-11-21T00:21:56;14.20;57.50
78647;DHT22;67961;43.460;3.762;2023-11-21T00:24:24;14.10;57.60
78647;DHT22;67961;43.460;3.762;2023-11-21T00:26:50;14.10;57.60
78647;DHT22;67961;43.460;3.762;2023-11-21T00:29:16;14.10;57.70
78647;DHT22;67961;43.460;3.762;2023-11-21T00:31:43;14.10;57.80
78647;DHT22;67961;43.460;3.762;2023-11-21T00:34:11;14.10;57.60
78647;DHT22;67961;43.460;3.762;2023-11-21T00:36:37;14.10;57.50
78647;DHT22;67961;43.460;3.762;2023-11-21T00:39:03;14.10;57.50
78647;DHT22;67961;43.460;3.762;2023-11-21T00:41:29;14.10;56.60
78647;DHT22;67961;43.460;3.762;2023-11-21T00:43:54;14.00;56.60
78647;DHT22;67961;43.460;3.762;2023-11-21T00:46:20;14.00;56.80
78647;DHT22;67961;43.460;3.762;2023-11-21T00:48:46;14.00;56.20
78647;DHT22;67961;43.460;3.762;2023-11-21T00:51:12;14.00;55.80
78647;DHT22;67961;43.460;3.762;2023-11-21T00:53:37;14.00;55.80
78647;DHT22;67961;43.460;3.762;2023-11-21T00:56:03;14.00;55.90
78647;DHT22;67961;43.460;3.762;2023-11-21T00:58:30;13.90;55.70
78647;DHT22;67961;43.460;3.762;2023-11-21T01:00:56;13.90;55.40
78647;DHT22;67961;43.460;3.762;2023-11-21T01:03:21;13.90;55.20
78647;DHT22;67961;43.460;3.762;2023-11-21T01:05:47;13.90;55.00
78647;DHT22;67961;43.460;3.762;2023-11-21T01:08:15;13.90;54.70
78647;DHT22;67961;43.460;3.762;2023-11-21T01:10:41;13.90;54.90
78647;DHT22;67961;43.460;3.762;2023-11-21T01:13:06;13.90;54.80
78647;DHT22;67961;43.460;3.762;2023-11-21T01:15:36;13.90;55.00
78647;DHT22;67961;43.460;3.762;2023-11-21T01:18:01;13.90;54.70
78647;DHT22;67961;43.460;3.762;2023-11-21T01:20:29;13.80;54.70
78647;DHT22;67961;43.460;3.762;2023-11-21T01:22:54;13.80;54.90
78647;DHT22;67961;43.460;3.762;2023-11-21T01:25:20;13.70;54.80
78647;DHT22;67961;43.460;3.762;2023-11-21T01:27:46;13.70;54.80
78647;DHT22;67961;43.460;3.762;2023-11-21T01:30:13;13.70;55.00
78647;DHT22;67961;43.460;3.762;2023-11-21T01:32:39;13.70;55.10
78647;DHT22;67961;43.460;3.762;2023-11-21T01:35:05;13.70;55.10
78647;DHT22;67961;43.460;3.762;2023-11-21T01:37:32;13.60;55.30
78647;DHT22;67961;43.460;3.762;2023-11-21T01:39:59;13.60;55.40
78647;DHT22;67961;43.460;3.762;2023-11-21T01:42:24;13.60;55.40
78647;DHT22;67961;43.460;3.762;2023-11-21T01:44:50;13.60;55.70
78647;DHT22;67961;43.460;3.762;2023-11-21T01:47:16;13.60;55.90
78647;DHT22;67961;43.460;3.762;2023-11-21T01:49:45;13.60;55.50
78647;DHT22;67961;43.460;3.762;2023-11-21T01:52:12;13.60;55.70
78647;DHT22;67961;43.460;3.762;2023-11-21T01:54:38;13.60;55.60
78647;DHT22;67961;43.460;3.762;2023-11-21T01:57:05;13.60;55.60
78647;DHT22;67961;43.460;3.762;2023-11-21T01:59:37;13.60;55.70
78647;DHT22;67961;43.460;3.762;2023-11-21T02:02:06;13.60;55.60
78647;DHT22;67961;43.460;3.762;2023-11-21T02:04:36;13.50;55.80
78647;DHT22;67961;43.460;3.762;2023-11-21T02:07:02;13.50;55.90
78647;DHT22;67961;43.460;3.762;2023-11-21T02:09:31;13.50;56.00
78647;DHT22;67961;43.460;3.762;2023-11-21T02:11:57;13.50;56.00
78647;DHT22;67961;43.460;3.762;2023-11-21T02:14:25;13.50;55.70
78647;DHT22;67961;43.460;3.762;2023-11-21T02:16:52;13.50;55.70
78647;DHT22;67961;43.460;3.762;2023-11-21T02:19:20;13.50;55.50
78647;DHT22;67961;43.460;3.762;2023-11-21T02:21:49;13.50;55.30
78647;DHT22;67961;43.460;3.762;2023-11-21T02:24:22;13.50;55.20
78647;DHT22;67961;43.460;3.762;2023-11-21T02:26:49;13.50;55.20
78647;DHT22;67961;43.460;3.762;2023-11-21T02:29:17;13.50;55.30
78647;DHT22;67961;43.460;3.762;2023-11-21T02:31:45;13.50;55.30
78647;DHT22;67961;43.460;3.762;2023-11-21T02:34:17;13.50;55.20
78647;DHT22;67961;43.460;3.762;2023-11-21T02:36:46;13.50;55.50
78647;DHT22;67961;43.460;3.762;2023-11-21T02:39:15;13.50;55.60
78647;DHT22;67961;43.460;3.762;2023-11-21T02:41:42;13.50;55.40
78647;DHT22;67961;43.460;3.762;2023-11-21T02:44:08;13.50;55.40
78647;DHT22;67961;43.460;3.762;2023-11-21T02:46:35;13.50;55.70
78647;DHT22;67961;43.460;3.762;2023-11-21T02:49:05;13.50;55.70
78647;DHT22;67961;43.460;3.762;2023-11-21T02:51:36;13.50;55.70
78647;DHT22;67961;43.460;3.762;2023-11-21T02:54:03;13.50;55.90
78647;DHT22;67961;43.460;3.762;2023-11-21T02:56:32;13.50;55.90
78647;DHT22;67961;43.460;3.762;2023-11-21T02:59:00;13.50;56.20
78647;DHT22;67961;43.460;3.762;2023-11-21T03:01:26;13.50;56.50
78647;DHT22;67961;43.460;3.762;2023-11-21T03:03:53;13.50;56.90
78647;DHT22;67961;43.460;3.762;2023-11-21T03:06:19;13.40;57.10
78647;DHT22;67961;43.460;3.762;2023-11-21T03:08:46;13.50;57.40
78647;DHT22;67961;43.460;3.762;2023-11-21T03:11:12;13.50;57.60
78647;DHT22;67961;43.460;3.762;2023-11-21T03:13:41;13.50;57.70
78647;DHT22;67961;43.460;3.762;2023-11-21T03:16:11;13.50;58.00
78647;DHT22;67961;43.460;3.762;2023-11-21T03:18:37;13.50;58.00
78647;DHT22;67961;43.460;3.762;2023-11-21T03:21:04;13.50;58.00
78647;DHT22;67961;43.460;3.762;2023-11-21T03:23:30;13.50;58.30
78647;DHT22;67961;43.460;3.762;2023-11-21T03:25:56;13.50;58.40
78647;DHT22;67961;43.460;3.762;2023-11-21T03:28:22;13.50;58.50
78647;DHT22;67961;43.460;3.762;2023-11-21T03:30:49;13.50;58.50
78647;DHT22;67961;43.460;3.762;2023-11-21T03:33:14;13.50;58.70
78647;DHT22;67961;43.460;3.762;2023-11-21T03:35:40;13.50;58.90
78647;DHT22;67961;43.460;3.762;2023-11-21T03:38:07;13.50;58.90
78647;DHT22;67961;43.460;3.762;2023-11-21T03:40:33;13.50;59.10
78647;DHT22;67961;43.460;3.762;2023-11-21T03:42:59;13.50;59.30
78647;DHT22;67961;43.460;3.762;2023-11-21T03:45:24;13.50;59.50
78647;DHT22;67961;43.460;3.762;2023-11-21T03:47:50;13.40;59.60
78647;DHT22;67961;43.460;3.762;2023-11-21T03:50:15;13.40;59.80
78647;DHT22;67961;43.460;3.762;2023-11-21T03:52:42;13.40;60.10
78647;DHT22;67961;43.460;3.762;2023-11-21T03:55:08;13.30;60.30
78647;DHT22;67961;43.460;3.762;2023-11-21T03:57:34;13.30;60.30
78647;DHT22;67961;43.460;3.762;2023-11-21T03:59:59;13.40;60.50
78647;DHT22;67961;43.460;3.762;2023-11-21T04:02:25;13.30;60.50
78647;DHT22;67961;43.460;3.762;2023-11-21T04:04:52;13.30;60.60
78647;DHT22;67961;43.460;3.762;2023-11-21T04:07:17;13.30;60.90
78647;DHT22;67961;43.460;3.762;2023-11-21T04:09:43;13.30;61.00
78647;DHT22;67961;43.460;3.762;2023-11-21T04:12:09;13.30;61.20
78647;DHT22;67961;43.460;3.762;2023-11-21T04:14:35;13.30;61.30
78647;DHT22;67961;43.460;3.762;2023-11-21T04:17:01;13.30;61.20
78647;DHT22;67961;43.460;3.762;2023-11-21T04:19:26;13.30;61.40
78647;DHT22;67961;43.460;3.762;2023-11-21T04:21:52;13.20;61.60
78647;DHT22;67961;43.460;3.762;2023-11-21T04:24:18;13.10;61.60
78647;DHT22;67961;43.460;3.762;2023-11-21T04:26:44;13.10;61.70
78647;DHT22;67961;43.460;3.762;2023-11-21T04:29:09;13.10;61.80
78647;DHT22;67961;43.460;3.762;2023-11-21T04:31:35;13.10;61.60
78647;DHT22;67961;43.460;3.762;2023-11-21T04:34:01;13.10;61.80
78647;DHT22;67961;43.460;3.762;2023-11-21T04:36:26;13.10;61.90
78647;DHT22;67961;43.460;3.762;2023-11-21T04:38:52;13.00;61.80
78647;DHT22;67961;43.460;3.762;2023-11-21T04:41:18;13.00;61.90
78647;DHT22;67961;43.460;3.762;2023-11-21T04:43:43;13.10;62.10
78647;DHT22;67961;43.460;3.762;2023-11-21T04:46:09;13.10;61.90
78647;DHT22;67961;43.460;3.762;2023-11-21T04:48:35;13.00;62.10
78647;DHT22;67961;43.460;3.762;2023-11-21T04:51:00;13.00;62.20
78647;DHT22;67961;43.460;3.762;2023-11-21T04:53:26;13.00;62.30
78647;DHT22;67961;43.460;3.762;2023-11-21T04:55:51;12.90;62.50
78647;DHT22;67961;43.460;3.762;2023-11-21T04:58:18;12.90;62.50
78647;DHT22;67961;43.460;3.762;2023-11-21T05:00:44;12.90;62.70
78647;DHT22;67961;43.460;3.762;2023-11-21T05:03:10;12.90;62.70
78647;DHT22;67961;43.460;3.762;2023-11-21T05:05:36;12.90;62.80
78647;DHT22;67961;43.460;3.762;2023-11-21T05:08:01;12.90;62.60
78647;DHT22;67961;43.460;3.762;2023-11-21T05:10:27;12.90;62.70
78647;DHT22;67961;43.460;3.762;2023-11-21T05:12:54;12.90;62.90
78647;DHT22;67961;43.460;3.762;2023-11-21T05:15:21;12.80;63.00
78647;DHT22;67961;43.460;3.762;2023-11-21T05:17:47;12.90;63.00
78647;DHT22;67961;43.460;3.762;2023-11-21T05:20:16;12.80;63.10
78647;DHT22;67961;43.460;3.762;2023-11-21T05:22:47;12.90;63.20
78647;DHT22;67961;43.460;3.762;2023-11-21T05:25:16;12.90;63.20
78647;DHT22;67961;43.460;3.762;2023-11-21T05:27:47;12.80;63.30
78647;DHT22;67961;43.460;3.762;2023-11-21T05:30:14;12.80;63.40
78647;DHT22;67961;43.460;3.762;2023-11-21T05:32:40;12.80;63.50
78647;DHT22;67961;43.460;3.762;2023-11-21T05:35:08;12.80;63.50
78647;DHT22;67961;43.460;3.762;2023-11-21T05:37:40;12.90;63.60
78647;DHT22;67961;43.460;3.762;2023-11-21T05:40:07;12.90;63.70
78647;DHT22;67961;43.460;3.762;2023-11-21T05:42:34;12.80;63.70
78647;DHT22;67961;43.460;3.762;2023-11-21T05:45:00;12.80;63.90
78647;DHT22;67961;43.460;3.762;2023-11-21T05:47:39;12.80;63.80
78647;DHT22;67961;43.460;3.762;2023-11-21T05:50:06;12.80;63.90
78647;DHT22;67961;43.460;3.762;2023-11-21T05:52:36;12.80;63.90
78647;DHT22;67961;43.460;3.762;2023-11-21T05:55:02;12.70;64.10
78647;DHT22;67961;43.460;3.762;2023-11-21T05:57:27;12.70;64.20
78647;DHT22;67961;43.460;3.762;2023-11-21T05:59:53;12.70;64.40
78647;DHT22;67961;43.460;3.762;2023-11-21T06:02:19;12.70;64.40
78647;DHT22;67961;43.460;3.762;2023-11-21T06:04:44;12.70;64.50
78647;DHT22;67961;43.460;3.762;2023-11-21T06:07:10;12.70;64.40
78647;DHT22;67961;43.460;3.762;2023-11-21T06:09:37;12.80;64.40
78647;DHT22;67961;43.460;3.762;2023-11-21T06:12:05;12.70;64.40
78647;DHT22;67961;43.460;3.762;2023-11-21T06:14:31;12.80;64.50
78647;DHT22;67961;43.460;3.762;2023-11-21T06:16:58;12.70;64.60
78647;DHT22;67961;43.460;3.762;2023-11-21T06:19:24;12.70;64.50
78647;DHT22;67961;43.460;3.762;2023-11-21T06:21:50;12.80;64.70
78647;DHT22;67961;43.460;3.762;2023-11-21T06:24:16;12.80;64.60
78647;DHT22;67961;43.460;3.762;2023-11-21T06:26:42;12.90;64.40
78647;DHT22;67961;43.460;3.762;2023-11-21T06:29:09;12.90;64.40
78647;DHT22;67961;43.460;3.762;2023-11-21T06:31:36;12.90;64.20
78647;DHT22;67961;43.460;3.762;2023-11-21T06:34:02;13.00;64.20
78647;DHT22;67961;43.460;3.762;2023-11-21T06:36:28;13.00;64.10
78647;DHT22;67961;43.460;3.762;2023-11-21T06:38:54;13.00;64.20
78647;DHT22;67961;43.460;3.762;2023-11-21T06:41:20;13.00;64.00
78647;DHT22;67961;43.460;3.762;2023-11-21T06:43:46;13.10;63.90
78647;DHT22;67961;43.460;3.762;2023-11-21T06:46:12;13.10;63.90
78647;DHT22;67961;43.460;3.762;2023-11-21T06:48:44;13.10;63.70
78647;DHT22;67961;43.460;3.762;2023-11-21T06:51:10;13.10;63.70
78647;DHT22;67961;43.460;3.762;2023-11-21T06:53:37;13.10;63.60
78647;DHT22;67961;43.460;3.762;2023-11-21T06:56:03;13.10;63.60
78647;DHT22;67961;43.460;3.762;2023-11-21T06:58:29;13.10;63.70
78647;DHT22;67961;43.460;3.762;2023-11-21T07:00:54;13.10;63.60
78647;DHT22;67961;43.460;3.762;2023-11-21T07:03:20;13.10;63.50
78647;DHT22;67961;43.460;3.762;2023-11-21T07:05:45;13.10;63.40
78647;DHT22;67961;43.460;3.762;2023-11-21T07:08:11;13.10;63.30
78647;DHT22;67961;43.460;3.762;2023-11-21T07:10:38;13.20;63.30
78647;DHT22;67961;43.460;3.762;2023-11-21T07:13:03;13.20;63.20
78647;DHT22;67961;43.460;3.762;2023-11-21T07:15:29;13.20;63.30
78647;DHT22;67961;43.460;3.762;2023-11-21T07:17:55;13.30;63.20
78647;DHT22;67961;43.460;3.762;2023-11-21T07:20:21;13.30;63.10
78647;DHT22;67961;43.460;3.762;2023-11-21T07:22:47;13.30;63.00
78647;DHT22;67961;43.460;3.762;2023-11-21T07:25:13;13.30;63.00
78647;DHT22;67961;43.460;3.762;2023-11-21T07:27:38;13.30;63.00
78647;DHT22;67961;43.460;3.762;2023-11-21T07:30:04;13.30;63.00
78647;DHT22;67961;43.460;3.762;2023-11-21T07:32:31;13.30;63.10
78647;DHT22;67961;43.460;3.762;2023-11-21T07:34:57;13.30;62.90
78647;DHT22;67961;43.460;3.762;2023-11-21T07:37:25;13.30;62.90
78647;DHT22;67961;43.460;3.762;2023-11-21T07:39:54;13.40;62.90
78647;DHT22;67961;43.460;3.762;2023-11-21T07:42:23;13.40;62.90
78647;DHT22;67961;43.460;3.762;2023-11-21T07:44:49;13.40;62.90
78647;DHT22;67961;43.460;3.762;2023-11-21T07:47:15;13.40;62.70
78647;DHT22;67961;43.460;3.762;2023-11-21T07:49:41;13.50;62.80
78647;DHT22;67961;43.460;3.762;2023-11-21T07:52:09;13.50;62.90
78647;DHT22;67961;43.460;3.762;2023-11-21T07:54:35;13.50;62.70
78647;DHT22;67961;43.460;3.762;2023-11-21T07:57:01;13.50;62.60
78647;DHT22;67961;43.460;3.762;2023-11-21T07:59:27;13.50;62.70
78647;DHT22;67961;43.460;3.762;2023-11-21T08:01:52;13.50;62.70
78647;DHT22;67961;43.460;3.762;2023-11-21T08:04:18;13.50;62.80
78647;DHT22;67961;43.460;3.762;2023-11-21T08:06:44;13.60;62.90
78647;DHT22;67961;43.460;3.762;2023-11-21T08:09:09;13.60;62.70
78647;DHT22;67961;43.460;3.762;2023-11-21T08:11:37;13.70;62.70
78647;DHT22;67961;43.460;3.762;2023-11-21T08:14:04;13.70;63.00
78647;DHT22;67961;43.460;3.762;2023-11-21T08:16:30;13.80;62.60
78647;DHT22;67961;43.460;3.762;2023-11-21T08:18:56;13.90;62.50
78647;DHT22;67961;43.460;3.762;2023-11-21T08:21:22;13.90;62.50
78647;DHT22;67961;43.460;3.762;2023-11-21T08:23:50;13.90;62.60
78647;DHT22;67961;43.460;3.762;2023-11-21T08:26:19;13.90;62.50
78647;DHT22;67961;43.460;3.762;2023-11-21T08:28:45;14.00;62.60
78647;DHT22;67961;43.460;3.762;2023-11-21T08:31:12;14.00;62.40
78647;DHT22;67961;43.460;3.762;2023-11-21T08:33:38;14.00;62.30
78647;DHT22;67961;43.460;3.762;2023-11-21T08:36:10;14.10;62.10
78647;DHT22;67961;43.460;3.762;2023-11-21T08:38:37;14.20;62.00
78647;DHT22;67961;43.460;3.762;2023-11-21T08:41:07;14.30;61.70
78647;DHT22;67961;43.460;3.762;2023-11-21T08:43:36;14.40;61.40
78647;DHT22;67961;43.460;3.762;2023-11-21T08:46:08;14.50;61.60
78647;DHT22;67961;43.460;3.762;2023-11-21T08:48:36;14.70;61.00
78647;DHT22;67961;43.460;3.762;2023-11-21T08:51:02;14.80;60.60
78647;DHT22;67961;43.460;3.762;2023-11-21T08:53:27;14.90;60.50
78647;DHT22;67961;43.460;3.762;2023-11-21T08:55:53;15.00;60.10
78647;DHT22;67961;43.460;3.762;2023-11-21T08:58:19;15.10;59.70
78647;DHT22;67961;43.460;3.762;2023-11-21T09:00:45;15.20;59.70
78647;DHT22;67961;43.460;3.762;2023-11-21T09:03:12;15.30;59.30
78647;DHT22;67961;43.460;3.762;2023-11-21T09:05:39;15.40;59.10
78647;DHT22;67961;43.460;3.762;2023-11-21T09:08:05;15.40;59.20
78647;DHT22;67961;43.460;3.762;2023-11-21T09:10:31;15.40;59.60
78647;DHT22;67961;43.460;3.762;2023-11-21T09:12:57;15.50;59.50
78647;DHT22;67961;43.460;3.762;2023-11-21T09:15:24;15.50;58.90
78647;DHT22;67961;43.460;3.762;2023-11-21T09:17:50;15.50;57.80
78647;DHT22;67961;43.460;3.762;2023-11-21T09:20:16;15.60;57.30
78647;DHT22;67961;43.460;3.762;2023-11-21T09:22:42;15.60;56.90
78647;DHT22;67961;43.460;3.762;2023-11-21T09:25:10;15.70;56.40
78647;DHT22;67961;43.460;3.762;2023-11-21T09:27:36;15.80;56.40
78647;DHT22;67961;43.460;3.762;2023-11-21T09:30:02;15.80;56.00
78647;DHT22;67961;43.460;3.762;2023-11-21T09:32:31;16.00;55.90
78647;DHT22;67961;43.460;3.762;2023-11-21T09:34:56;16.00;55.90
78647;DHT22;67961;43.460;3.762;2023-11-21T09:37:24;16.10;55.90
78647;DHT22;67961;43.460;3.762;2023-11-21T09:39:50;16.10;55.60
78647;DHT22;67961;43.460;3.762;2023-11-21T09:42:41;16.20;55.50
78647;DHT22;67961;43.460;3.762;2023-11-21T09:45:17;16.30;55.10
78647;DHT22;67961;43.460;3.762;2023-11-21T09:47:45;16.40;55.20
78647;DHT22;67961;43.460;3.762;2023-11-21T09:50:16;16.40;54.60
78647;DHT22;67961;43.460;3.762;2023-11-21T09:55:26;16.40;54.30
78647;DHT22;67961;43.460;3.762;2023-11-21T09:57:54;16.40;54.70
78647;DHT22;67961;43.460;3.762;2023-11-21T10:00:22;16.50;54.70
78647;DHT22;67961;43.460;3.762;2023-11-21T10:02:49;16.50;54.30
78647;DHT22;67961;43.460;3.762;2023-11-21T10:05:15;16.50;54.40
78647;DHT22;67961;43.460;3.762;2023-11-21T10:07:43;16.50;54.10
78647;DHT22;67961;43.460;3.762;2023-11-21T10:10:10;16.60;54.50
78647;DHT22;67961;43.460;3.762;2023-11-21T10:12:37;16.60;54.90
78647;DHT22;67961;43.460;3.762;2023-11-21T10:15:07;16.60;54.70
78647;DHT22;67961;43.460;3.762;2023-11-21T10:17:36;16.70;54.20
78647;DHT22;67961;43.460;3.762;2023-11-21T10:20:10;16.70;54.20
78647;DHT22;67961;43.460;3.762;2023-11-21T10:22:40;16.70;54.30
78647;DHT22;67961;43.460;3.762;2023-11-21T10:25:08;16.80;53.90
78647;DHT22;67961;43.460;3.762;2023-11-21T10:27:34;16.80;54.10
78647;DHT22;67961;43.460;3.762;2023-11-21T10:30:02;16.80;53.80
78647;DHT22;67961;43.460;3.762;2023-11-21T10:32:28;16.80;53.60
78647;DHT22;67961;43.460;3.762;2023-11-21T10:34:57;16.80;53.70
78647;DHT22;67961;43.460;3.762;2023-11-21T10:37:25;16.80;53.80
78647;DHT22;67961;43.460;3.762;2023-11-21T10:39:50;16.90;54.00
78647;DHT22;67961;43.460;3.762;2023-11-21T10:42:18;16.80;53.50
78647;DHT22;67961;43.460;3.762;2023-11-21T10:44:46;16.90;54.10
78647;DHT22;67961;43.460;3.762;2023-11-21T10:47:11;16.90;53.70
78647;DHT22;67961;43.460;3.762;2023-11-21T10:49:37;16.90;53.80
78647;DHT22;67961;43.460;3.762;2023-11-21T10:52:03;16.90;53.90
78647;DHT22;67961;43.460;3.762;2023-11-21T10:54:30;17.00;53.20
78647;DHT22;67961;43.460;3.762;2023-11-21T10:56:58;17.00;53.20
78647;DHT22;67961;43.460;3.762;2023-11-21T10:59:28;17.00;52.90
78647;DHT22;67961;43.460;3.762;2023-11-21T11:01:54;17.00;53.20
78647;DHT22;67961;43.460;3.762;2023-11-21T11:04:22;17.00;53.20
78647;DHT22;67961;43.460;3.762;2023-11-21T11:06:55;17.00;53.10
78647;DHT22;67961;43.460;3.762;2023-11-21T11:09:22;17.00;53.00
78647;DHT22;67961;43.460;3.762;2023-11-21T11:11:48;17.00;53.20
78647;DHT22;67961;43.460;3.762;2023-11-21T11:14:14;17.00;53.20
78647;DHT22;67961;43.460;3.762;2023-11-21T11:16:41;17.00;52.90
78647;DHT22;67961;43.460;3.762;2023-11-21T11:19:09;17.00;52.90
78647;DHT22;67961;43.460;3.762;2023-11-21T11:33:39;17.20;52.80
78647;DHT22;67961;43.460;3.762;2023-11-21T11:38:39;17.20;52.50
78647;DHT22;67961;43.460;3.762;2023-11-21T11:41:10;17.30;52.30
78647;DHT22;67961;43.460;3.762;2023-11-21T11:43:36;17.40;52.10
78647;DHT22;67961;43.460;3.762;2023-11-21T11:46:09;17.40;52.30
78647;DHT22;67961;43.460;3.762;2023-11-21T11:48:39;17.40;52.60
78647;DHT22;67961;43.460;3.762;2023-11-21T11:51:10;17.50;52.10
78647;DHT22;67961;43.460;3.762;2023-11-21T11:53:40;17.40;51.90
78647;DHT22;67961;43.460;3.762;2023-11-21T11:56:30;17.40;52.10
78647;DHT22;67961;43.460;3.762;2023-11-21T11:59:03;17.30;52.50
78647;DHT22;67961;43.460;3.762;2023-11-21T12:01:30;17.30;53.30
78647;DHT22;67961;43.460;3.762;2023-11-21T12:06:41;17.20;53.10
78647;DHT22;67961;43.460;3.762;2023-11-21T12:09:07;17.20;53.40
78647;DHT22;67961;43.460;3.762;2023-11-21T12:11:33;17.30;53.90
78647;DHT22;67961;43.460;3.762;2023-11-21T12:14:01;17.30;53.70
78647;DHT22;67961;43.460;3.762;2023-11-21T12:16:27;17.30;54.00
78647;DHT22;67961;43.460;3.762;2023-11-21T12:18:53;17.40;54.10
78647;DHT22;67961;43.460;3.762;2023-11-21T12:21:23;17.40;53.70
78647;DHT22;67961;43.460;3.762;2023-11-21T12:23:48;17.40;52.90
78647;DHT22;67961;43.460;3.762;2023-11-21T12:26:14;17.40;52.80
78647;DHT22;67961;43.460;3.762;2023-11-21T12:28:40;17.30;53.10
78647;DHT22;67961;43.460;3.762;2023-11-21T12:31:06;17.20;53.50
78647;DHT22;67961;43.460;3.762;2023-11-21T12:33:33;17.20;53.20
78647;DHT22;67961;43.460;3.762;2023-11-21T12:35:58;17.20;52.90
78647;DHT22;67961;43.460;3.762;2023-11-21T12:38:24;17.30;52.70
78647;DHT22;67961;43.460;3.762;2023-11-21T12:40:50;17.30;52.50
78647;DHT22;67961;43.460;3.762;2023-11-21T12:43:17;17.30;52.90
78647;DHT22;67961;43.460;3.762;2023-11-21T12:45:43;17.40;52.70
78647;DHT22;67961;43.460;3.762;2023-11-21T12:48:09;17.40;52.50
78647;DHT22;67961;43.460;3.762;2023-11-21T12:50:37;17.40;52.50
78647;DHT22;67961;43.460;3.762;2023-11-21T12:53:09;17.40;52.30
78647;DHT22;67961;43.460;3.762;2023-11-21T12:55:35;17.30;52.50
78647;DHT22;67961;43.460;3.762;2023-11-21T12:58:04;17.40;52.30
78647;DHT22;67961;43.460;3.762;2023-11-21T13:00:44;17.40;52.10
78647;DHT22;67961;43.460;3.762;2023-11-21T13:03:12;17.40;51.80
78647;DHT22;67961;43.460;3.762;2023-11-21T13:05:41;17.40;51.60
78647;DHT22;67961;43.460;3.762;2023-11-21T13:08:16;17.40;51.70
78647;DHT22;67961;43.460;3.762;2023-11-21T13:10:45;17.40;51.20
78647;DHT22;67961;43.460;3.762;2023-11-21T13:13:13;17.40;50.50
78647;DHT22;67961;43.460;3.762;2023-11-21T13:15:53;17.40;49.70
78647;DHT22;67961;43.460;3.762;2023-11-21T13:18:23;17.40;48.90
78647;DHT22;67961;43.460;3.762;2023-11-21T13:20:49;17.40;48.60
78647;DHT22;67961;43.460;3.762;2023-11-21T13:23:15;17.40;48.80
78647;DHT22;67961;43.460;3.762;2023-11-21T13:25:42;17.40;48.80
78647;DHT22;67961;43.460;3.762;2023-11-21T13:28:11;17.40;47.90
78647;DHT22;67961;43.460;3.762;2023-11-21T13:30:37;17.40;48.30
78647;DHT22;67961;43.460;3.762;2023-11-21T13:33:05;17.40;48.60
78647;DHT22;67961;43.460;3.762;2023-11-21T13:35:34;17.40;48.90
78647;DHT22;67961;43.460;3.762;2023-11-21T13:38:08;17.40;49.00
78647;DHT22;67961;43.460;3.762;2023-11-21T13:40:35;17.40;48.80
78647;DHT22;67961;43.460;3.762;2023-11-21T13:43:12;17.40;48.10
78647;DHT22;67961;43.460;3.762;2023-11-21T13:45:40;17.40;46.90
78647;DHT22;67961;43.460;3.762;2023-11-21T13:48:06;17.40;45.90
78647;DHT22;67961;43.460;3.762;2023-11-21T13:50:52;17.40;46.00
78647;DHT22;67961;43.460;3.762;2023-11-21T13:53:24;17.30;46.50
78647;DHT22;67961;43.460;3.762;2023-11-21T13:55:51;17.30;46.40
78647;DHT22;67961;43.460;3.762;2023-11-21T13:58:20;17.30;46.40
78647;DHT22;67961;43.460;3.762;2023-11-21T14:00:50;17.30;46.20
78647;DHT22;67961;43.460;3.762;2023-11-21T14:03:25;17.20;46.10
78647;DHT22;67961;43.460;3.762;2023-11-21T14:06:03;17.20;46.60
78647;DHT22;67961;43.460;3.762;2023-11-21T14:08:34;17.20;46.10
78647;DHT22;67961;43.460;3.762;2023-11-21T14:11:00;17.20;46.10
78647;DHT22;67961;43.460;3.762;2023-11-21T14:13:28;17.20;46.20
78647;DHT22;67961;43.460;3.762;2023-11-21T14:15:54;17.20;46.40
78647;DHT22;67961;43.460;3.762;2023-11-21T14:18:24;17.20;46.60
78647;DHT22;67961;43.460;3.762;2023-11-21T14:21:06;17.20;46.40
78647;DHT22;67961;43.460;3.762;2023-11-21T14:23:33;17.10;46.40
78647;DHT22;67961;43.460;3.762;2023-11-21T14:26:01;17.00;46.20
78647;DHT22;67961;43.460;3.762;2023-11-21T14:28:27;17.00;45.70
78647;DHT22;67961;43.460;3.762;2023-11-21T14:30:53;17.00;45.60
78647;DHT22;67961;43.460;3.762;2023-11-21T14:33:18;17.00;45.70
78647;DHT22;67961;43.460;3.762;2023-11-21T14:35:44;17.00;45.00
78647;DHT22;67961;43.460;3.762;2023-11-21T14:38:11;16.90;44.80
78647;DHT22;67961;43.460;3.762;2023-11-21T14:40:39;16.90;45.30
78647;DHT22;67961;43.460;3.762;2023-11-21T14:43:05;16.80;45.10
78647;DHT22;67961;43.460;3.762;2023-11-21T14:45:32;16.80;45.40
78647;DHT22;67961;43.460;3.762;2023-11-21T14:47:58;16.80;45.40
78647;DHT22;67961;43.460;3.762;2023-11-21T14:50:32;16.80;45.50
78647;DHT22;67961;43.460;3.762;2023-11-21T14:53:10;16.70;45.20
78647;DHT22;67961;43.460;3.762;2023-11-21T14:55:38;16.70;45.60
78647;DHT22;67961;43.460;3.762;2023-11-21T14:58:19;16.60;45.70
78647;DHT22;67961;43.460;3.762;2023-11-21T15:00:56;16.60;46.50
78647;DHT22;67961;43.460;3.762;2023-11-21T15:03:27;16.60;46.40
78647;DHT22;67961;43.460;3.762;2023-11-21T15:05:59;16.60;46.60
78647;DHT22;67961;43.460;3.762;2023-11-21T15:08:37;16.60;46.50
78647;DHT22;67961;43.460;3.762;2023-11-21T15:11:03;16.60;46.90
78647;DHT22;67961;43.460;3.762;2023-11-21T15:13:32;16.50;46.40
78647;DHT22;67961;43.460;3.762;2023-11-21T15:15:58;16.50;45.90
78647;DHT22;67961;43.460;3.762;2023-11-21T15:18:33;16.50;46.50
78647;DHT22;67961;43.460;3.762;2023-11-21T15:20:59;16.50;46.80
78647;DHT22;67961;43.460;3.762;2023-11-21T15:23:25;16.50;46.70
78647;DHT22;67961;43.460;3.762;2023-11-21T15:25:53;16.40;46.50
78647;DHT22;67961;43.460;3.762;2023-11-21T15:28:19;16.40;47.10
78647;DHT22;67961;43.460;3.762;2023-11-21T15:30:45;16.40;46.90
78647;DHT22;67961;43.460;3.762;2023-11-21T15:33:14;16.40;47.80
78647;DHT22;67961;43.460;3.762;2023-11-21T15:35:39;16.40;48.20
78647;DHT22;67961;43.460;3.762;2023-11-21T15:38:06;16.40;47.90
78647;DHT22;67961;43.460;3.762;2023-11-21T15:40:33;16.40;47.80
78647;DHT22;67961;43.460;3.762;2023-11-21T15:42:59;16.30;48.10
78647;DHT22;67961;43.460;3.762;2023-11-21T15:45:25;16.20;47.50
78647;DHT22;67961;43.460;3.762;2023-11-21T15:47:51;16.20;47.80
78647;DHT22;67961;43.460;3.762;2023-11-21T15:50:19;16.20;47.70
78647;DHT22;67961;43.460;3.762;2023-11-21T15:52:44;16.10;47.70